Time;durP1;ratioP1;P1;durP2;ratioP2;P2;SDS_P1;SDS_P2;PMS_P1;PMS_P2;Temp;Humidity;BMP_temperature;BMP_pressure;BME280_temperature;BME280_humidity;BME280_pressure;Samples;Min_cycle;Max_cycle;Signal;HPM_P1;HPM_P2
2023/12/19 00:00:43;;;;;;;7.73;6.00;;;2.40;99.90;;;;;;5051506;28;20205;-60
2023/12/19 00:03:11;;;;;;;9.60;6.90;;;2.40;99.90;;;;;;5051552;28;20210;-61
2023/12/19 00:05:39;;;;;;;9.90;6.10;;;2.50;99.90;;;;;;5051438;28;20683;-61
2023/12/19 00:08:07;;;;;;;9.10;7.00;;;2.50;99.90;;;;;;5051403;28;20217;-59
2023/12/19 00:10:33;;;;;;;8.40;5.97;;;2.50;99.90;;;;;;5051359;28;20202;-61
2023/12/19 00:13:00;;;;;;;8.67;6.20;;;2.60;99.90;;;;;;5051284;28;20209;-60
2023/12/19 00:15:27;;;;;;;8.47;6.20;;;2.60;99.90;;;;;;5051437;28;20307;-61
2023/12/19 00:17:54;;;;;;;8.57;6.20;;;2.60;99.90;;;;;;5051417;28;20297;-59
2023/12/19 00:20:22;;;;;;;7.57;5.77;;;2.70;99.90;;;;;;5050947;28;20206;-62
2023/12/19 00:22:49;;;;;;;8.17;5.77;;;2.70;99.90;;;;;;5050918;28;20772;-60
2023/12/19 00:25:15;;;;;;;8.43;6.37;;;2.70;99.90;;;;;;5051451;28;20205;-61
2023/12/19 00:27:43;;;;;;;7.93;5.57;;;2.70;99.90;;;;;;5051282;28;20625;-60
2023/12/19 00:30:10;;;;;;;8.67;6.60;;;2.70;99.90;;;;;;5051001;28;20201;-60
2023/12/19 00:32:37;;;;;;;8.43;5.70;;;2.80;99.90;;;;;;5050920;28;20229;-60
2023/12/19 00:35:04;;;;;;;9.17;5.83;;;2.80;99.90;;;;;;5050834;28;20275;-60
2023/12/19 00:37:32;;;;;;;7.23;5.67;;;2.80;99.90;;;;;;5050887;28;20213;-60
2023/12/19 00:39:59;;;;;;;7.53;5.77;;;2.80;99.90;;;;;;5050810;28;20217;-60
2023/12/19 00:42:26;;;;;;;7.83;5.70;;;2.90;99.90;;;;;;5050864;28;20222;-60
2023/12/19 00:44:52;;;;;;;10.10;5.30;;;2.90;99.90;;;;;;5050821;28;20275;-60
2023/12/19 00:47:19;;;;;;;7.63;5.60;;;2.90;99.90;;;;;;5050925;28;20210;-62
2023/12/19 00:49:46;;;;;;;6.70;5.03;;;2.80;99.90;;;;;;5050663;28;20216;-60
2023/12/19 00:52:12;;;;;;;6.13;4.90;;;2.70;99.90;;;;;;5050863;28;20225;-60
2023/12/19 00:54:40;;;;;;;7.17;5.23;;;2.70;99.90;;;;;;5050954;28;20225;-59
2023/12/19 00:57:08;;;;;;;5.60;4.90;;;2.60;99.90;;;;;;5050687;28;20205;-60
2023/12/19 00:59:34;;;;;;;6.47;5.40;;;2.50;99.90;;;;;;5050625;28;20208;-60
2023/12/19 01:02:01;;;;;;;6.03;4.77;;;2.50;99.90;;;;;;5050604;28;20225;-60
2023/12/19 01:04:28;;;;;;;5.90;5.10;;;2.40;99.90;;;;;;5050614;28;20213;-60
2023/12/19 01:06:54;;;;;;;7.40;5.07;;;2.50;99.90;;;;;;5050851;28;20213;-60
2023/12/19 01:09:21;;;;;;;7.73;5.40;;;2.50;99.90;;;;;;5050601;28;20223;-62
2023/12/19 01:11:49;;;;;;;7.13;5.00;;;2.50;99.90;;;;;;5050526;28;20233;-60
2023/12/19 01:14:16;;;;;;;8.13;5.47;;;2.50;99.90;;;;;;5050483;28;20213;-59
2023/12/19 01:16:42;;;;;;;8.83;5.30;;;2.40;99.90;;;;;;5050587;28;20236;-62
2023/12/19 01:19:09;;;;;;;8.20;5.70;;;2.40;99.90;;;;;;5050188;28;20279;-59
2023/12/19 01:21:36;;;;;;;8.83;6.30;;;2.20;99.90;;;;;;5050524;28;20603;-59
2023/12/19 01:24:03;;;;;;;8.83;6.87;;;2.00;99.90;;;;;;5050485;28;20206;-60
2023/12/19 01:26:31;;;;;;;9.50;6.27;;;1.90;99.90;;;;;;5051010;28;20209;-60
2023/12/19 01:28:59;;;;;;;7.97;6.20;;;1.80;99.90;;;;;;5050645;28;20209;-59
2023/12/19 01:31:26;;;;;;;9.60;6.80;;;1.90;99.90;;;;;;5034005;28;20648;-59
2023/12/19 01:33:53;;;;;;;9.43;6.33;;;1.70;99.90;;;;;;5050605;28;20633;-60
2023/12/19 01:36:19;;;;;;;7.23;6.40;;;1.80;99.90;;;;;;5050378;28;20279;-60
2023/12/19 01:38:46;;;;;;;8.20;6.53;;;1.90;99.90;;;;;;5050514;28;20218;-60
2023/12/19 01:41:13;;;;;;;8.87;6.60;;;1.80;99.90;;;;;;5050101;28;20720;-59
2023/12/19 01:43:39;;;;;;;8.30;6.80;;;1.80;99.90;;;;;;5050282;28;20283;-59
2023/12/19 01:46:14;;;;;;;11.43;6.97;;;2.00;99.90;;;;;;5050232;28;20209;-59
2023/12/19 01:48:41;;;;;;;8.07;6.40;;;2.00;99.90;;;;;;5051468;28;20255;-60
2023/12/19 01:51:09;;;;;;;8.03;6.13;;;2.00;99.90;;;;;;5053632;28;20716;-59
2023/12/19 01:53:36;;;;;;;10.87;7.23;;;2.00;99.90;;;;;;5053950;28;20683;-59
2023/12/19 01:56:03;;;;;;;11.40;7.37;;;2.00;99.90;;;;;;5053837;28;20221;-59
2023/12/19 01:58:30;;;;;;;8.53;5.67;;;2.10;99.90;;;;;;5053997;28;20210;-59
2023/12/19 02:00:57;;;;;;;7.63;5.60;;;2.00;99.90;;;;;;5053801;28;20580;-60
2023/12/19 02:03:25;;;;;;;9.03;6.23;;;2.00;99.90;;;;;;5053830;28;20267;-59
2023/12/19 02:05:54;;;;;;;8.43;6.13;;;2.10;99.90;;;;;;5053824;28;20202;-59
2023/12/19 02:08:21;;;;;;;7.60;5.30;;;2.10;99.90;;;;;;5053997;28;20234;-59
2023/12/19 02:10:48;;;;;;;8.70;6.23;;;2.10;99.90;;;;;;5053418;28;20214;-59
2023/12/19 02:13:14;;;;;;;7.30;5.90;;;2.10;99.90;;;;;;5053534;28;20255;-59
2023/12/19 02:15:41;;;;;;;7.87;5.13;;;2.00;99.90;;;;;;5053959;28;20271;-59
2023/12/19 02:18:15;;;;;;;6.10;5.17;;;2.00;99.90;;;;;;5053778;28;20282;-60
2023/12/19 02:20:43;;;;;;;7.27;5.30;;;2.10;99.90;;;;;;5053258;28;20582;-59
2023/12/19 02:23:11;;;;;;;10.50;4.90;;;1.90;99.90;;;;;;5053336;28;20205;-59
2023/12/19 02:25:38;;;;;;;6.37;4.40;;;1.70;99.90;;;;;;5053282;28;20677;-59
2023/12/19 02:28:05;;;;;;;5.63;4.73;;;1.70;99.90;;;;;;5053063;28;20212;-59
2023/12/19 02:30:32;;;;;;;5.97;4.70;;;1.60;99.90;;;;;;5052892;28;20205;-59
2023/12/19 02:32:59;;;;;;;6.33;5.17;;;1.60;99.90;;;;;;5052974;28;20206;-59
2023/12/19 02:35:25;;;;;;;5.83;4.57;;;1.70;99.90;;;;;;5053005;28;20241;-60
2023/12/19 02:37:52;;;;;;;5.90;4.83;;;1.80;99.90;;;;;;5053146;28;20206;-59
2023/12/19 02:40:20;;;;;;;6.77;4.67;;;1.90;99.90;;;;;;5052385;28;20206;-60
2023/12/19 02:42:47;;;;;;;6.70;5.10;;;1.90;99.90;;;;;;5052890;28;20712;-60
2023/12/19 02:45:14;;;;;;;6.30;5.10;;;1.90;99.90;;;;;;5052837;28;20202;-60
2023/12/19 02:47:41;;;;;;;6.77;4.70;;;2.00;99.90;;;;;;5053080;28;20695;-59
2023/12/19 02:50:08;;;;;;;36.97;19.27;;;2.10;99.90;;;;;;5052669;28;20218;-59
2023/12/19 02:52:35;;;;;;;9.70;6.73;;;2.00;99.90;;;;;;5052373;28;20710;-59
2023/12/19 02:55:01;;;;;;;8.67;5.37;;;1.80;99.90;;;;;;5052846;28;20221;-60
2023/12/19 02:57:29;;;;;;;10.50;6.50;;;1.60;99.90;;;;;;5036736;28;20214;-59
2023/12/19 02:59:56;;;;;;;7.47;5.77;;;1.70;99.90;;;;;;5052528;28;20292;-59
2023/12/19 03:02:23;;;;;;;8.87;6.43;;;1.80;99.90;;;;;;5052047;28;20755;-59
2023/12/19 03:04:50;;;;;;;6.97;5.17;;;1.90;99.90;;;;;;5052419;28;20215;-60
2023/12/19 03:07:16;;;;;;;7.80;5.50;;;2.00;99.90;;;;;;5052346;28;20201;-59
2023/12/19 03:09:43;;;;;;;9.30;5.67;;;2.00;99.90;;;;;;5052432;28;20214;-60
2023/12/19 03:12:10;;;;;;;7.40;5.30;;;2.00;99.90;;;;;;5052391;28;20237;-60
2023/12/19 03:14:38;;;;;;;6.07;4.80;;;2.00;99.90;;;;;;5052837;28;20202;-59
2023/12/19 03:17:05;;;;;;;7.87;5.27;;;2.00;99.90;;;;;;5052425;28;20217;-60
2023/12/19 03:19:32;;;;;;;5.83;4.90;;;2.00;99.90;;;;;;5052285;28;20202;-60
2023/12/19 03:21:59;;;;;;;6.67;5.40;;;2.10;99.90;;;;;;5052183;28;20291;-60
2023/12/19 03:24:28;;;;;;;6.00;4.87;;;2.00;99.90;;;;;;5052278;28;20240;-60
2023/12/19 03:26:54;;;;;;;6.20;5.33;;;1.80;99.90;;;;;;5052436;28;20209;-60
2023/12/19 03:29:21;;;;;;;8.90;6.43;;;1.70;99.90;;;;;;5051969;28;20217;-60
2023/12/19 03:31:49;;;;;;;7.63;5.83;;;1.60;99.90;;;;;;5052235;28;20229;-60
2023/12/19 03:34:16;;;;;;;8.13;6.07;;;1.60;99.90;;;;;;5051862;28;20205;-60
2023/12/19 03:36:43;;;;;;;8.90;6.33;;;1.60;99.90;;;;;;5052222;28;20217;-60
2023/12/19 03:39:10;;;;;;;7.80;5.97;;;1.60;99.90;;;;;;5051868;28;20251;-60
2023/12/19 03:41:36;;;;;;;6.63;5.10;;;1.70;99.90;;;;;;5051990;28;20320;-60
2023/12/19 03:44:04;;;;;;;10.47;5.30;;;1.80;99.90;;;;;;5051920;28;20228;-60
2023/12/19 03:46:30;;;;;;;6.97;5.37;;;1.80;99.90;;;;;;5035936;28;20201;-60
2023/12/19 03:48:58;;;;;;;8.20;5.17;;;1.70;99.90;;;;;;5051909;28;20209;-60
2023/12/19 03:51:25;;;;;;;7.43;5.50;;;1.60;99.90;;;;;;5051700;28;20240;-60
2023/12/19 03:53:52;;;;;;;8.50;5.00;;;1.50;99.90;;;;;;5051699;28;20233;-60
2023/12/19 03:56:18;;;;;;;9.43;5.67;;;1.30;99.90;;;;;;5051524;28;20233;-60
2023/12/19 03:58:45;;;;;;;8.03;5.10;;;1.30;99.90;;;;;;5051737;28;20205;-60
2023/12/19 04:01:13;;;;;;;8.50;5.10;;;1.50;99.90;;;;;;5051149;28;20228;-60
2023/12/19 04:03:39;;;;;;;7.73;4.97;;;1.60;99.90;;;;;;5051518;28;20217;-60
2023/12/19 04:06:07;;;;;;;6.43;5.27;;;1.70;99.90;;;;;;5051530;28;20599;-60
2023/12/19 04:08:34;;;;;;;7.80;4.73;;;1.80;99.90;;;;;;5051721;28;20216;-60
2023/12/19 04:11:01;;;;;;;7.03;5.03;;;1.90;99.90;;;;;;5074435;22;20225;-58
2023/12/19 04:13:27;;;;;;;5.67;4.60;;;1.90;99.90;;;;;;5042575;28;20244;-57
2023/12/19 04:15:54;;;;;;;6.17;5.00;;;2.00;99.90;;;;;;5043225;28;20232;-57
2023/12/19 04:18:21;;;;;;;7.13;5.17;;;2.10;99.90;;;;;;5041040;28;20706;-57
2023/12/19 04:20:47;;;;;;;7.03;4.67;;;2.10;99.90;;;;;;5039868;28;20593;-57
2023/12/19 04:23:15;;;;;;;7.23;5.07;;;2.10;99.90;;;;;;5050985;28;20229;-57
2023/12/19 04:25:42;;;;;;;7.27;5.33;;;2.10;99.90;;;;;;5051722;28;20293;-57
2023/12/19 04:28:09;;;;;;;8.60;5.47;;;2.10;99.90;;;;;;5051333;28;20221;-56
2023/12/19 04:30:36;;;;;;;7.73;5.13;;;2.00;99.90;;;;;;5051265;28;20646;-59
2023/12/19 04:33:03;;;;;;;8.03;5.83;;;2.00;99.90;;;;;;5051163;28;20286;-57
2023/12/19 04:35:29;;;;;;;8.00;5.60;;;2.00;99.90;;;;;;5051209;28;20312;-57
2023/12/19 04:37:56;;;;;;;9.63;5.93;;;2.00;99.90;;;;;;5051450;28;20240;-57
2023/12/19 04:40:24;;;;;;;9.27;6.07;;;1.90;99.90;;;;;;5050893;28;20208;-57
2023/12/19 04:42:51;;;;;;;8.83;6.17;;;1.90;99.90;;;;;;5051049;28;20217;-57
2023/12/19 04:45:17;;;;;;;7.60;5.30;;;1.80;99.90;;;;;;5051234;28;20209;-57
2023/12/19 04:47:44;;;;;;;7.90;5.27;;;1.60;99.90;;;;;;5051416;28;20205;-57
2023/12/19 04:50:11;;;;;;;6.30;5.23;;;1.40;99.90;;;;;;5051026;28;20201;-57
2023/12/19 04:52:38;;;;;;;6.00;5.20;;;1.20;99.90;;;;;;5051129;28;20221;-58
2023/12/19 04:55:06;;;;;;;6.17;5.27;;;1.10;99.90;;;;;;5051276;28;20624;-56
2023/12/19 04:57:34;;;;;;;8.27;5.80;;;1.20;99.90;;;;;;5034995;28;20218;-56
2023/12/19 05:00:01;;;;;;;12.87;6.03;;;1.30;99.90;;;;;;5050836;28;20668;-57
2023/12/19 05:02:28;;;;;;;7.43;5.37;;;1.40;99.90;;;;;;5051131;28;20556;-57
2023/12/19 05:04:55;;;;;;;9.37;5.40;;;1.50;99.90;;;;;;5051036;28;20274;-57
2023/12/19 05:07:23;;;;;;;7.77;5.43;;;1.50;99.90;;;;;;5051019;28;20199;-57
2023/12/19 05:09:50;;;;;;;8.83;5.40;;;1.50;99.90;;;;;;5050835;28;20229;-57
2023/12/19 05:12:16;;;;;;;10.23;5.70;;;1.50;99.90;;;;;;5050315;28;20225;-57
2023/12/19 05:14:44;;;;;;;8.60;5.43;;;1.50;99.90;;;;;;5051213;28;20208;-57
2023/12/19 05:17:11;;;;;;;5.13;4.10;;;1.40;99.90;;;;;;5050991;28;20222;-57
2023/12/19 05:19:38;;;;;;;7.43;5.03;;;1.30;99.90;;;;;;5050890;28;20267;-56
2023/12/19 05:22:04;;;;;;;7.10;4.90;;;1.30;99.90;;;;;;5050795;28;20225;-57
2023/12/19 05:24:32;;;;;;;6.67;4.50;;;1.10;99.90;;;;;;5053283;28;20206;-58
2023/12/19 05:26:59;;;;;;;6.50;4.57;;;0.80;99.90;;;;;;5054687;28;20656;-57
2023/12/19 05:29:26;;;;;;;6.33;5.20;;;0.80;99.90;;;;;;5054800;28;20209;-59
2023/12/19 05:31:54;;;;;;;7.60;5.80;;;0.80;99.90;;;;;;5054705;28;20228;-56
2023/12/19 05:34:20;;;;;;;7.47;5.60;;;0.90;99.90;;;;;;5054557;28;20209;-57
2023/12/19 05:36:47;;;;;;;6.47;5.50;;;1.00;99.90;;;;;;5054668;28;20275;-57
2023/12/19 05:39:15;;;;;;;6.23;5.40;;;1.10;99.90;;;;;;5054177;28;20461;-57
2023/12/19 05:41:42;;;;;;;7.90;5.60;;;1.00;99.90;;;;;;5054561;28;20228;-57
2023/12/19 05:44:11;;;;;;;9.87;5.50;;;1.00;99.90;;;;;;5054369;28;20206;-57
2023/12/19 05:46:38;;;;;;;8.63;6.00;;;1.10;99.90;;;;;;5054480;28;20201;-57
2023/12/19 05:49:06;;;;;;;9.00;5.83;;;1.10;99.90;;;;;;5054226;28;20694;-57
2023/12/19 05:51:33;;;;;;;9.53;6.00;;;1.20;99.90;;;;;;5037618;28;20267;-56
2023/12/19 05:53:59;;;;;;;8.90;6.03;;;1.20;99.90;;;;;;5054105;28;20222;-57
2023/12/19 05:56:26;;;;;;;8.33;6.43;;;1.20;99.90;;;;;;5054074;28;20225;-57
2023/12/19 05:58:53;;;;;;;7.97;5.80;;;1.30;99.90;;;;;;5054198;28;20212;-57
2023/12/19 06:01:21;;;;;;;8.57;5.83;;;1.30;99.90;;;;;;5053772;28;20229;-57
2023/12/19 06:03:48;;;;;;;9.30;5.57;;;1.30;99.90;;;;;;5054078;28;20288;-56
2023/12/19 06:06:16;;;;;;;12.10;5.83;;;1.20;99.90;;;;;;5053952;28;20213;-56
2023/12/19 06:08:43;;;;;;;7.17;5.50;;;0.70;99.90;;;;;;5053845;28;20256;-57
2023/12/19 06:11:10;;;;;;;8.70;6.20;;;0.20;99.90;;;;;;5053569;28;20213;-57
2023/12/19 06:13:37;;;;;;;7.07;5.57;;;-0.10;99.90;;;;;;5053997;28;20331;-57
2023/12/19 06:16:05;;;;;;;9.00;6.33;;;-0.20;99.90;;;;;;5053840;28;20225;-57
2023/12/19 06:18:32;;;;;;;9.37;6.10;;;-0.20;99.90;;;;;;5053394;28;20201;-57
2023/12/19 06:21:00;;;;;;;8.10;6.20;;;0.00;99.90;;;;;;5053491;28;20224;-57
2023/12/19 06:23:28;;;;;;;8.97;6.00;;;0.20;99.90;;;;;;5053445;28;20580;-57
2023/12/19 06:25:55;;;;;;;7.77;6.20;;;0.40;99.90;;;;;;5053403;28;20205;-57
2023/12/19 06:28:22;;;;;;;11.20;6.57;;;0.50;99.90;;;;;;5053628;28;20206;-57
2023/12/19 06:30:49;;;;;;;7.70;6.40;;;0.60;99.90;;;;;;5053350;28;20205;-57
2023/12/19 06:33:16;;;;;;;9.57;6.67;;;0.50;99.90;;;;;;5053361;28;20253;-57
2023/12/19 06:35:46;;;;;;;6.93;5.70;;;0.40;99.90;;;;;;5053082;28;20209;-57
2023/12/19 06:38:13;;;;;;;9.37;7.23;;;0.50;99.90;;;;;;5053838;28;20297;-57
2023/12/19 06:40:41;;;;;;;10.37;6.70;;;0.50;99.90;;;;;;5053872;28;20284;-57
2023/12/19 06:43:10;;;;;;;9.13;6.33;;;0.50;99.90;;;;;;5053611;28;20279;-57
2023/12/19 06:45:37;;;;;;;8.80;6.30;;;0.40;99.90;;;;;;5037379;28;20205;-57
2023/12/19 06:48:04;;;;;;;8.17;6.07;;;0.50;99.90;;;;;;5053341;28;20714;-57
2023/12/19 06:50:31;;;;;;;9.47;6.53;;;0.60;99.90;;;;;;5053102;28;20210;-57
2023/12/19 06:52:58;;;;;;;10.50;7.00;;;0.80;99.90;;;;;;5053392;28;20228;-57
2023/12/19 06:55:25;;;;;;;10.60;6.37;;;0.90;99.90;;;;;;5053175;28;20292;-57
2023/12/19 06:57:55;;;;;;;17.97;7.40;;;1.00;99.90;;;;;;5053055;28;20686;-57
2023/12/19 07:00:22;;;;;;;10.60;6.57;;;1.20;99.90;;;;;;5052726;28;20197;-57
2023/12/19 07:02:48;;;;;;;24.23;14.17;;;1.30;99.90;;;;;;5052465;28;20252;-57
2023/12/19 07:05:15;;;;;;;11.23;6.60;;;1.40;99.90;;;;;;5052730;28;20205;-58
2023/12/19 07:07:42;;;;;;;8.03;6.53;;;1.50;99.90;;;;;;5052752;28;20703;-57
2023/12/19 07:10:10;;;;;;;8.77;7.30;;;1.60;99.90;;;;;;5052523;28;20201;-57
2023/12/19 07:12:39;;;;;;;10.27;6.57;;;1.70;99.90;;;;;;5036624;28;20221;-57
2023/12/19 07:15:09;;;;;;;8.83;5.90;;;1.80;99.90;;;;;;5052723;28;20237;-57
2023/12/19 07:17:35;;;;;;;9.37;5.90;;;1.90;99.90;;;;;;5052621;28;20201;-57
2023/12/19 07:20:03;;;;;;;7.23;5.67;;;1.90;99.90;;;;;;5053057;28;20256;-57
2023/12/19 07:22:30;;;;;;;9.83;5.87;;;2.00;99.90;;;;;;5052429;28;20233;-57
2023/12/19 07:24:57;;;;;;;9.27;5.70;;;2.00;99.90;;;;;;5052594;28;20351;-57
2023/12/19 07:27:23;;;;;;;7.30;5.80;;;2.10;99.90;;;;;;5052194;28;20584;-56
2023/12/19 07:29:50;;;;;;;7.20;5.47;;;2.00;99.90;;;;;;5052153;28;20228;-57
2023/12/19 07:32:18;;;;;;;8.90;6.00;;;2.00;99.90;;;;;;5052531;28;20231;-57
2023/12/19 07:34:46;;;;;;;8.73;6.23;;;2.10;99.90;;;;;;5052234;28;20213;-57
2023/12/19 07:37:12;;;;;;;7.87;5.27;;;2.10;99.90;;;;;;5052065;28;20194;-57
2023/12/19 07:39:39;;;;;;;10.03;5.50;;;2.20;99.90;;;;;;5052150;28;20305;-56
2023/12/19 07:42:06;;;;;;;8.03;5.40;;;2.30;99.90;;;;;;5052021;28;20221;-58
2023/12/19 07:44:33;;;;;;;9.00;5.93;;;2.20;99.90;;;;;;5051921;28;20235;-57
2023/12/19 07:47:00;;;;;;;8.33;6.17;;;2.20;99.90;;;;;;5051554;28;20585;-57
2023/12/19 07:49:28;;;;;;;10.97;6.03;;;2.10;99.90;;;;;;5052005;28;20201;-57
2023/12/19 07:51:54;;;;;;;9.67;5.97;;;1.90;99.90;;;;;;5052016;28;20224;-57
2023/12/19 07:54:21;;;;;;;7.40;5.97;;;2.00;99.90;;;;;;5051550;28;20207;-56
2023/12/19 07:56:47;;;;;;;7.57;5.80;;;2.10;99.90;;;;;;5051906;28;20307;-56
2023/12/19 07:59:14;;;;;;;9.80;6.43;;;2.40;99.90;;;;;;5051408;28;20699;-56
2023/12/19 08:01:41;;;;;;;10.70;7.87;;;2.50;99.90;;;;;;5051709;28;20221;-56
2023/12/19 08:04:08;;;;;;;18.30;12.30;;;2.60;99.90;;;;;;5051662;28;20301;-58
2023/12/19 08:06:36;;;;;;;10.67;6.77;;;2.70;99.90;;;;;;5051639;28;20669;-57
2023/12/19 08:09:04;;;;;;;9.80;6.50;;;2.90;99.90;;;;;;5051643;28;20505;-57
2023/12/19 08:11:31;;;;;;;8.13;6.67;;;2.90;99.90;;;;;;5050795;28;20237;-58
2023/12/19 08:13:57;;;;;;;10.47;6.60;;;3.10;99.90;;;;;;5051306;28;20262;-56
2023/12/19 08:16:25;;;;;;;10.17;8.13;;;3.10;99.90;;;;;;5051044;28;20284;-57
2023/12/19 08:18:52;;;;;;;8.37;6.40;;;3.10;99.90;;;;;;5051449;28;20201;-57
2023/12/19 08:21:19;;;;;;;10.87;8.20;;;3.20;99.90;;;;;;5051009;28;20592;-58
2023/12/19 08:23:47;;;;;;;12.57;8.37;;;3.20;99.90;;;;;;5050913;28;20592;-57
2023/12/19 08:26:14;;;;;;;12.23;8.77;;;3.20;99.90;;;;;;5050956;28;20268;-57
2023/12/19 08:28:40;;;;;;;9.13;7.37;;;3.20;99.90;;;;;;5051197;28;20217;-58
2023/12/19 08:31:07;;;;;;;9.53;6.97;;;3.20;99.90;;;;;;5050869;28;20228;-57
2023/12/19 08:33:34;;;;;;;9.67;7.27;;;3.30;99.90;;;;;;5050994;28;20574;-57
2023/12/19 08:36:00;;;;;;;13.70;7.70;;;3.20;99.90;;;;;;5051230;28;20213;-57
2023/12/19 08:38:27;;;;;;;10.63;7.87;;;3.00;99.90;;;;;;5051066;28;20248;-59
2023/12/19 08:40:55;;;;;;;11.33;8.13;;;3.00;99.90;;;;;;5051008;28;20198;-57
2023/12/19 08:43:22;;;;;;;10.57;8.40;;;3.00;99.90;;;;;;5050949;28;20205;-57
2023/12/19 08:45:49;;;;;;;11.87;8.07;;;3.10;99.90;;;;;;5051364;28;20213;-57
2023/12/19 08:48:17;;;;;;;10.33;7.67;;;2.90;99.90;;;;;;5050911;28;20217;-57
2023/12/19 08:50:44;;;;;;;11.00;8.30;;;2.90;99.90;;;;;;5050748;28;20579;-57
2023/12/19 08:53:12;;;;;;;11.30;8.30;;;2.90;99.90;;;;;;5050447;28;20237;-57
2023/12/19 08:55:39;;;;;;;12.57;8.90;;;3.00;99.90;;;;;;5034842;28;20228;-57
2023/12/19 08:58:08;;;;;;;10.87;9.13;;;3.10;99.90;;;;;;5054050;28;20228;-57
2023/12/19 09:00:35;;;;;;;12.40;10.57;;;3.20;99.90;;;;;;5057486;28;20297;-57
2023/12/19 09:03:05;;;;;;;11.03;8.47;;;3.30;99.90;;;;;;5057688;28;20229;-57
2023/12/19 09:05:32;;;;;;;12.73;8.23;;;3.50;99.90;;;;;;5057510;28;20209;-57
2023/12/19 09:07:59;;;;;;;11.70;8.23;;;3.60;99.90;;;;;;5057435;28;20217;-57
2023/12/19 09:10:25;;;;;;;12.43;8.77;;;3.60;99.90;;;;;;5057591;28;20222;-57
2023/12/19 09:12:52;;;;;;;14.03;9.10;;;3.70;99.90;;;;;;5057532;28;20221;-58
2023/12/19 09:15:21;;;;;;;15.13;10.03;;;3.90;99.90;;;;;;5057527;28;20198;-56
2023/12/19 09:17:47;;;;;;;13.60;9.30;;;4.10;99.90;;;;;;5057538;28;20198;-57
2023/12/19 09:20:15;;;;;;;13.33;9.40;;;4.20;99.90;;;;;;5057385;28;20201;-57
2023/12/19 09:22:42;;;;;;;11.80;8.27;;;4.30;99.90;;;;;;5041554;28;20225;-57
2023/12/19 09:25:14;;;;;;;11.40;8.63;;;4.50;99.90;;;;;;5057664;28;20201;-58
2023/12/19 09:27:42;;;;;;;11.17;9.27;;;4.70;99.90;;;;;;5041264;28;20224;-57
2023/12/19 09:30:09;;;;;;;10.97;7.47;;;4.90;99.90;;;;;;5056883;28;20747;-57
2023/12/19 09:32:38;;;;;;;8.80;7.03;;;5.10;99.90;;;;;;5057345;28;20275;-57
2023/12/19 09:35:05;;;;;;;9.73;8.03;;;5.30;99.90;;;;;;5057448;28;20562;-57
2023/12/19 09:37:32;;;;;;;8.40;6.90;;;5.50;99.90;;;;;;5057207;28;20586;-58
2023/12/19 09:39:58;;;;;;;8.93;6.80;;;5.70;99.90;;;;;;5057407;28;20197;-57
2023/12/19 09:42:25;;;;;;;9.53;6.73;;;5.90;99.90;;;;;;5057819;28;20291;-57
2023/12/19 09:44:52;;;;;;;7.73;6.47;;;6.00;99.90;;;;;;5057497;28;20583;-57
2023/12/19 09:47:23;;;;;;;34.93;30.17;;;6.20;99.90;;;;;;5057302;28;20249;-57
2023/12/19 09:49:53;;;;;;;10.60;7.50;;;6.30;99.90;;;;;;5057110;28;20206;-57
2023/12/19 09:52:23;;;;;;;8.83;7.27;;;6.30;99.90;;;;;;5056923;28;20343;-57
2023/12/19 09:54:50;;;;;;;9.33;7.30;;;6.30;99.90;;;;;;5057212;28;20205;-57
2023/12/19 09:57:18;;;;;;;8.10;6.83;;;6.10;99.90;;;;;;5057053;28;20225;-57
2023/12/19 09:59:46;;;;;;;7.50;6.37;;;6.00;99.90;;;;;;5056953;28;20205;-57
2023/12/19 10:02:14;;;;;;;10.20;7.80;;;5.70;99.90;;;;;;5057279;28;20304;-56
2023/12/19 10:04:41;;;;;;;8.27;6.60;;;5.40;99.90;;;;;;5040807;28;20208;-57
2023/12/19 10:07:09;;;;;;;8.23;6.57;;;5.40;99.90;;;;;;5057007;28;20212;-58
2023/12/19 10:09:35;;;;;;;8.80;7.27;;;5.30;99.90;;;;;;5054453;28;20292;-57
2023/12/19 10:12:06;;;;;;;9.93;7.80;;;5.20;99.90;;;;;;5053838;28;20221;-57
2023/12/19 10:14:33;;;;;;;8.50;7.10;;;5.10;99.90;;;;;;5053635;28;20237;-57
2023/12/19 10:17:01;;;;;;;8.27;6.40;;;5.00;99.90;;;;;;5054009;28;20296;-57
2023/12/19 10:19:28;;;;;;;9.90;7.40;;;5.10;99.90;;;;;;5053585;28;20296;-56
2023/12/19 10:22:05;;;;;;;10.77;7.97;;;5.10;99.90;;;;;;5053611;28;20221;-57
2023/12/19 10:24:34;;;;;;;131.17;98.83;;;5.20;99.90;;;;;;5053594;28;20251;-57
2023/12/19 10:27:01;;;;;;;10.47;7.83;;;5.30;99.90;;;;;;5054020;28;20263;-57
2023/12/19 10:29:28;;;;;;;9.10;6.87;;;5.30;99.90;;;;;;5054762;28;20209;-57
2023/12/19 10:31:55;;;;;;;11.33;7.37;;;5.30;99.90;;;;;;5054438;28;20221;-58
2023/12/19 10:34:22;;;;;;;11.67;7.70;;;5.40;99.90;;;;;;5054616;28;20751;-58
2023/12/19 10:36:49;;;;;;;9.90;7.50;;;5.40;99.90;;;;;;5054192;28;20252;-57
2023/12/19 10:39:18;;;;;;;8.90;7.30;;;5.30;99.90;;;;;;5054116;28;20202;-57
2023/12/19 10:41:46;;;;;;;10.23;6.77;;;5.30;99.90;;;;;;5037681;28;20236;-57
2023/12/19 10:44:14;;;;;;;9.80;7.30;;;5.30;99.90;;;;;;5053203;28;20197;-58
2023/12/19 10:46:41;;;;;;;12.90;8.37;;;5.20;99.90;;;;;;5053117;28;20202;-57
2023/12/19 10:49:08;;;;;;;10.23;8.03;;;5.20;99.90;;;;;;5053124;28;20231;-57
2023/12/19 10:51:36;;;;;;;9.40;7.20;;;5.30;99.90;;;;;;5052642;28;20233;-57
2023/12/19 10:54:08;;;;;;;8.17;6.77;;;5.30;99.90;;;;;;5052737;28;20256;-58
2023/12/19 10:56:39;;;;;;;9.73;7.40;;;5.00;99.90;;;;;;5053176;28;20288;-57
2023/12/19 10:59:12;;;;;;;8.10;7.17;;;4.80;99.90;;;;;;5053076;28;20663;-57
2023/12/19 11:01:40;;;;;;;8.57;7.03;;;4.80;99.90;;;;;;5052696;28;20733;-56
2023/12/19 11:04:16;;;;;;;9.33;7.10;;;4.90;99.90;;;;;;5052812;28;20209;-57
2023/12/19 11:06:49;;;;;;;14.97;11.13;;;5.00;99.90;;;;;;5036564;28;20304;-57
2023/12/19 11:09:21;;;;;;;9.00;7.47;;;5.10;99.90;;;;;;5052858;28;20229;-57
2023/12/19 11:11:48;;;;;;;8.90;7.03;;;5.20;99.90;;;;;;5037915;28;20226;-57
2023/12/19 11:14:18;;;;;;;10.43;7.47;;;5.10;99.90;;;;;;5052764;28;20263;-57
2023/12/19 11:16:50;;;;;;;9.50;7.67;;;5.10;99.90;;;;;;5036829;28;20202;-57
2023/12/19 11:19:20;;;;;;;8.17;6.60;;;5.20;99.90;;;;;;5052876;28;20201;-58
2023/12/19 11:21:54;;;;;;;9.57;7.13;;;5.50;99.90;;;;;;5036152;28;20225;-57
2023/12/19 11:24:26;;;;;;;11.40;7.63;;;5.60;99.90;;;;;;5052302;28;20209;-58
2023/12/19 11:27:00;;;;;;;8.60;6.73;;;5.90;99.90;;;;;;5052527;28;20208;-58
2023/12/19 11:29:50;;;;;;;9.67;7.43;;;6.10;99.90;;;;;;5052002;28;20637;-57
2023/12/19 11:32:38;;;;;;;8.90;7.20;;;6.40;99.90;;;;;;5052447;28;20275;-57
2023/12/19 11:35:12;;;;;;;8.60;7.07;;;6.40;99.90;;;;;;5041656;28;20255;-57
2023/12/19 11:37:40;;;;;;;9.27;7.13;;;6.40;99.90;;;;;;5052128;28;20263;-57
2023/12/19 11:40:09;;;;;;;9.57;7.20;;;6.50;99.90;;;;;;5052051;28;20202;-56
2023/12/19 11:42:46;;;;;;;9.33;7.10;;;6.50;99.90;;;;;;5051853;28;20329;-58
2023/12/19 11:45:37;;;;;;;8.27;6.73;;;6.20;99.90;;;;;;5052312;28;20220;-57
2023/12/19 11:48:37;;;;;;;8.47;6.73;;;5.90;99.90;;;;;;5041315;28;20225;-57
2023/12/19 11:51:04;;;;;;;9.20;7.00;;;5.90;99.90;;;;;;5041136;28;20201;-56
2023/12/19 11:53:31;;;;;;;8.60;6.70;;;6.20;99.90;;;;;;5051678;28;20278;-56
2023/12/19 11:56:08;;;;;;;20.70;14.90;;;6.40;99.90;;;;;;5051902;28;20205;-58
2023/12/19 11:58:35;;;;;;;10.17;7.90;;;6.50;99.90;;;;;;5051770;28;20205;-57
2023/12/19 12:01:04;;;;;;;8.73;6.83;;;6.60;99.90;;;;;;5051778;28;20201;-57
2023/12/19 12:03:31;;;;;;;7.27;6.53;;;6.80;99.90;;;;;;5051727;28;20213;-57
2023/12/19 12:05:58;;;;;;;7.50;6.10;;;7.00;99.90;;;;;;5051834;28;20224;-57
2023/12/19 12:08:25;;;;;;;8.17;6.60;;;7.10;99.90;;;;;;5052179;28;20221;-57
2023/12/19 12:10:59;;;;;;;7.67;6.47;;;7.30;99.90;;;;;;5051601;28;20217;-57
2023/12/19 12:13:27;;;;;;;8.00;6.33;;;7.30;99.90;;;;;;5051805;28;20262;-57
2023/12/19 12:15:54;;;;;;;9.17;6.30;;;7.40;99.90;;;;;;5051792;28;20213;-58
2023/12/19 12:18:22;;;;;;;10.27;6.27;;;7.30;99.90;;;;;;5051551;28;20209;-60
2023/12/19 12:20:49;;;;;;;8.13;6.07;;;7.00;99.90;;;;;;5044933;28;20671;-64
2023/12/19 12:23:19;;;;;;;7.50;6.03;;;6.90;99.90;;;;;;5051643;28;20274;-62
2023/12/19 12:25:54;;;;;;;8.33;6.33;;;6.70;99.90;;;;;;5035159;28;20650;-63
2023/12/19 12:28:25;;;;;;;8.97;6.70;;;6.70;99.90;;;;;;5051012;28;20774;-63
2023/12/19 12:30:54;;;;;;;7.53;6.10;;;6.90;99.90;;;;;;5050914;28;20683;-63
2023/12/19 12:33:24;;;;;;;7.97;6.07;;;7.20;99.90;;;;;;5050802;28;20206;-64
2023/12/19 12:35:51;;;;;;;9.07;5.83;;;7.20;99.90;;;;;;5052146;28;20567;-65
2023/12/19 12:38:18;;;;;;;8.70;5.80;;;7.30;99.90;;;;;;5051180;28;20198;-58
2023/12/19 12:40:54;;;;;;;7.20;5.53;;;7.50;99.90;;;;;;5034766;28;20267;-58
2023/12/19 12:43:35;;;;;;;6.20;4.97;;;7.70;99.90;;;;;;5051130;28;20205;-58
2023/12/19 12:46:11;;;;;;;6.33;5.30;;;7.80;99.90;;;;;;5051310;28;20409;-57
2023/12/19 12:48:41;;;;;;;7.00;5.27;;;8.00;99.90;;;;;;5051026;28;20225;-58
2023/12/19 12:51:08;;;;;;;6.23;5.07;;;8.00;99.90;;;;;;5050928;28;20201;-59
2023/12/19 12:53:36;;;;;;;6.70;5.50;;;7.40;99.90;;;;;;5050914;28;20221;-58
2023/12/19 12:56:14;;;;;;;5.67;5.07;;;7.40;99.90;;;;;;5051041;28;20259;-57
2023/12/19 12:58:41;;;;;;;9.90;7.80;;;7.60;99.90;;;;;;5051059;28;20687;-58